Severn, Maryland
Current Conditions -  °F | °C
As of 8:54 AM on Wednesday 28 Jan 2015 (Local Time) from KBWI Reporting Station
Clear Clear  
Wind Chill: 12°   Ceiling: Unl
Heat Index: 24°   Visibility: 10mi
Dew Point:   Wind: 13mph
Humidity: 42%   Direction: 300°WNW
Pressure: 30.18"   Gusts: 20mph
Location:  39.14°N, 76.69°W
Report Text: KBWI 281354Z 30011G17KT 10SM CLR M04/M16 A3018 RMK AO2 SLP222 T10441156
Loading
Personal Weather Stations






























Interactive Weather Map New forecast layout! Learn more

10-Day Weather Forecast

Advertisements
Track Severe Weather on mobile